createdAt,value
2022-10-26T00:01:14.608Z,99.90
2022-10-26T00:03:44.866Z,99.90
2022-10-26T00:06:17.890Z,99.90
2022-10-26T00:08:46.076Z,99.90
2022-10-26T00:11:14.200Z,99.90
2022-10-26T00:13:42.794Z,99.90
2022-10-26T00:16:13.159Z,99.90
2022-10-26T00:18:41.428Z,99.90
2022-10-26T00:21:12.400Z,99.90
2022-10-26T00:23:40.440Z,99.90
2022-10-26T00:26:09.196Z,99.90
2022-10-26T00:28:36.769Z,99.90
2022-10-26T00:31:07.987Z,99.90
2022-10-26T00:33:37.092Z,99.90
2022-10-26T00:36:10.233Z,99.90
2022-10-26T00:38:38.625Z,99.90
2022-10-26T00:41:06.367Z,99.90
2022-10-26T00:43:36.081Z,99.90
2022-10-26T00:46:06.934Z,99.90
2022-10-26T00:48:41.285Z,99.90
2022-10-26T00:51:33.754Z,99.90
2022-10-26T00:54:05.211Z,99.90
2022-10-26T00:56:34.789Z,99.90
2022-10-26T00:59:05.519Z,99.90
2022-10-26T01:01:36.153Z,99.90
2022-10-26T01:04:04.285Z,99.90
2022-10-26T01:06:36.484Z,99.90
2022-10-26T01:09:05.564Z,99.90
2022-10-26T01:11:33.438Z,99.90
2022-10-26T01:14:03.855Z,99.90
2022-10-26T01:16:38.340Z,99.90
2022-10-26T01:19:14.783Z,99.90
2022-10-26T01:21:54.776Z,99.90
2022-10-26T01:24:44.123Z,99.90
2022-10-26T01:27:31.951Z,99.90
2022-10-26T01:30:19.901Z,99.90
2022-10-26T01:33:24.674Z,99.90
2022-10-26T01:36:02.658Z,99.90
2022-10-26T01:38:37.155Z,99.90
2022-10-26T01:41:10.909Z,99.90
2022-10-26T01:43:42.225Z,99.90
2022-10-26T01:46:11.883Z,99.90
2022-10-26T01:48:41.857Z,99.90
2022-10-26T01:51:11.407Z,99.90
2022-10-26T01:53:46.784Z,99.90
2022-10-26T01:56:23.453Z,99.90
2022-10-26T01:59:00.920Z,99.90
2022-10-26T02:01:52.139Z,99.90
2022-10-26T02:04:43.273Z,99.90
2022-10-26T02:07:31.541Z,99.90
2022-10-26T02:10:24.897Z,99.90
2022-10-26T02:13:01.914Z,99.90
2022-10-26T02:15:48.541Z,99.90
2022-10-26T02:18:27.023Z,99.90
2022-10-26T02:20:57.452Z,99.90
2022-10-26T02:23:27.873Z,99.90
2022-10-26T02:25:59.137Z,99.90
2022-10-26T02:28:33.249Z,99.90
2022-10-26T02:31:03.140Z,99.90
2022-10-26T02:33:34.063Z,99.90
2022-10-26T02:36:05.374Z,99.90
2022-10-26T02:38:34.968Z,99.90
2022-10-26T02:41:04.226Z,99.90
2022-10-26T02:43:37.593Z,99.90
2022-10-26T02:46:08.931Z,99.90
2022-10-26T02:48:36.705Z,99.90
2022-10-26T02:51:10.911Z,99.90
2022-10-26T02:53:42.422Z,99.90
2022-10-26T02:56:28.738Z,99.90
2022-10-26T02:59:00.240Z,99.90
2022-10-26T03:01:29.080Z,99.90
2022-10-26T03:04:00.546Z,99.90
2022-10-26T03:06:28.349Z,99.90
2022-10-26T03:08:55.616Z,99.90
2022-10-26T03:11:23.586Z,99.90
2022-10-26T03:13:51.147Z,99.90
2022-10-26T03:16:19.227Z,99.90
2022-10-26T03:18:46.715Z,99.90
2022-10-26T03:21:14.321Z,99.90
2022-10-26T03:23:42.245Z,99.90
2022-10-26T03:26:09.775Z,99.90
2022-10-26T03:28:38.001Z,99.90
2022-10-26T03:31:09.117Z,99.90
2022-10-26T03:36:05.230Z,99.90
2022-10-26T03:38:32.932Z,99.90
2022-10-26T03:41:01.023Z,99.90
2022-10-26T03:43:29.122Z,99.90
2022-10-26T03:45:56.889Z,99.90
2022-10-26T03:48:24.763Z,99.90
2022-10-26T03:50:52.300Z,99.90
2022-10-26T03:53:21.126Z,99.90
2022-10-26T03:55:48.944Z,99.90
2022-10-26T03:58:17.872Z,99.90
2022-10-26T04:00:45.637Z,99.90
2022-10-26T04:03:13.145Z,99.90
2022-10-26T04:05:40.919Z,99.90
2022-10-26T04:08:09.209Z,99.90
2022-10-26T04:10:37.392Z,99.90
2022-10-26T04:13:05.825Z,99.90
2022-10-26T04:15:33.207Z,99.90
2022-10-26T04:18:02.490Z,99.90
2022-10-26T04:20:31.768Z,99.90
2022-10-26T04:23:01.481Z,99.90
2022-10-26T04:25:32.927Z,99.90
2022-10-26T04:28:01.209Z,99.90
2022-10-26T04:30:29.109Z,99.90
2022-10-26T04:32:56.862Z,99.90
2022-10-26T04:35:24.948Z,99.90
2022-10-26T04:37:54.430Z,99.90
2022-10-26T04:40:22.196Z,99.90
2022-10-26T04:42:59.038Z,99.90
2022-10-26T04:45:28.723Z,99.90
2022-10-26T04:48:00.529Z,99.90
2022-10-26T04:50:28.540Z,99.90
2022-10-26T04:52:56.282Z,99.90
2022-10-26T04:55:24.364Z,99.90
2022-10-26T04:57:55.957Z,99.90
2022-10-26T05:00:22.949Z,99.90
2022-10-26T05:02:51.156Z,99.90
2022-10-26T05:05:19.801Z,99.90
2022-10-26T05:07:51.976Z,99.90
2022-10-26T05:10:19.708Z,99.90
2022-10-26T05:12:53.940Z,99.90
2022-10-26T05:15:21.434Z,99.90
2022-10-26T05:17:57.779Z,99.90
2022-10-26T05:20:28.631Z,99.90
2022-10-26T05:22:56.980Z,99.90
2022-10-26T05:25:25.278Z,99.90
2022-10-26T05:27:53.284Z,99.90
2022-10-26T05:30:21.339Z,99.90
2022-10-26T05:32:54.767Z,99.90
2022-10-26T05:35:23.462Z,99.90
2022-10-26T05:37:50.901Z,99.90
2022-10-26T05:40:19.105Z,99.90
2022-10-26T05:42:47.610Z,99.90
2022-10-26T05:45:16.024Z,99.90
2022-10-26T05:47:44.897Z,99.90
2022-10-26T05:50:16.243Z,99.90
2022-10-26T05:52:47.683Z,99.90
2022-10-26T05:55:18.086Z,99.90
2022-10-26T05:57:47.673Z,99.90
2022-10-26T06:00:18.937Z,99.90
2022-10-26T06:02:50.603Z,99.90
2022-10-26T06:05:21.983Z,99.90
2022-10-26T06:07:51.184Z,99.90
2022-10-26T06:10:20.627Z,99.90
2022-10-26T06:12:49.411Z,99.90
2022-10-26T06:15:19.973Z,99.90
2022-10-26T06:17:54.071Z,99.90
2022-10-26T06:20:50.808Z,99.90
2022-10-26T06:23:24.887Z,99.90
2022-10-26T06:27:32.961Z,99.90
2022-10-26T06:29:39.958Z,99.90
2022-10-26T06:32:09.819Z,99.90
2022-10-26T06:34:40.927Z,99.90
2022-10-26T06:37:09.181Z,99.90
2022-10-26T06:39:41.002Z,99.90
2022-10-26T06:42:11.902Z,99.90
2022-10-26T06:44:41.107Z,99.90
2022-10-26T06:47:36.600Z,99.90
2022-10-26T06:50:32.175Z,99.90
2022-10-26T06:53:09.516Z,99.90
2022-10-26T06:55:44.316Z,99.90
2022-10-26T06:58:18.353Z,99.90
2022-10-26T07:00:48.528Z,99.90
2022-10-26T07:03:17.537Z,99.90
2022-10-26T07:05:46.373Z,99.90
2022-10-26T07:08:15.165Z,99.90
2022-10-26T07:10:43.658Z,99.90
2022-10-26T07:13:12.852Z,99.90
2022-10-26T07:15:41.156Z,99.90
2022-10-26T07:18:09.821Z,99.90
2022-10-26T07:20:39.513Z,99.90
2022-10-26T07:23:08.623Z,99.90
2022-10-26T07:25:40.441Z,99.90
2022-10-26T07:28:10.622Z,99.90
2022-10-26T07:30:39.308Z,99.90
2022-10-26T07:33:12.268Z,99.90
2022-10-26T07:35:41.546Z,99.90
2022-10-26T07:38:09.728Z,99.90
2022-10-26T07:40:38.207Z,99.90
2022-10-26T07:43:06.366Z,99.90
2022-10-26T07:45:34.558Z,99.90
2022-10-26T07:48:02.088Z,99.90
2022-10-26T07:50:30.104Z,99.90
2022-10-26T07:53:00.562Z,99.90
2022-10-26T07:55:28.345Z,99.90
2022-10-26T07:57:57.566Z,99.90
2022-10-26T08:00:26.237Z,99.90
2022-10-26T08:02:54.836Z,99.90
2022-10-26T08:05:22.312Z,99.90
2022-10-26T08:07:49.840Z,99.90
2022-10-26T08:10:18.599Z,99.90
2022-10-26T08:12:46.071Z,99.90
2022-10-26T08:15:14.175Z,99.90
2022-10-26T08:17:41.755Z,99.90
2022-10-26T08:20:10.060Z,99.90
2022-10-26T08:22:37.753Z,99.90
2022-10-26T08:25:06.873Z,99.90
2022-10-26T08:27:34.233Z,99.90
2022-10-26T08:30:04.724Z,99.90
2022-10-26T08:32:34.507Z,99.90
2022-10-26T08:35:02.471Z,99.90
2022-10-26T08:37:31.108Z,99.90
2022-10-26T08:40:02.226Z,99.90
2022-10-26T08:42:38.587Z,99.90
2022-10-26T08:45:09.966Z,99.90
2022-10-26T08:47:43.873Z,99.90
2022-10-26T08:50:26.845Z,99.90
2022-10-26T08:52:59.705Z,99.90
2022-10-26T08:55:31.153Z,99.90
2022-10-26T08:58:04.919Z,99.90
2022-10-26T09:00:32.736Z,99.90
2022-10-26T09:03:01.009Z,99.90
2022-10-26T09:05:34.784Z,99.90
2022-10-26T09:08:38.498Z,99.90
2022-10-26T09:11:20.953Z,99.90
2022-10-26T09:14:23.959Z,99.90
2022-10-26T09:16:55.650Z,99.90
2022-10-26T09:19:30.027Z,99.90
2022-10-26T09:22:17.976Z,99.90
2022-10-26T09:24:52.480Z,99.90
2022-10-26T09:27:32.134Z,99.90
2022-10-26T09:30:07.920Z,99.90
2022-10-26T09:32:40.249Z,99.90
2022-10-26T09:37:59.105Z,99.90
2022-10-26T09:40:34.652Z,99.90
2022-10-26T09:43:06.113Z,99.90
2022-10-26T09:45:40.314Z,99.90
2022-10-26T09:48:17.622Z,99.90
2022-10-26T09:50:48.796Z,99.90
2022-10-26T09:53:16.759Z,99.90
2022-10-26T09:55:47.791Z,99.90
2022-10-26T09:58:18.889Z,99.90
2022-10-26T10:00:47.213Z,99.90
2022-10-26T10:03:26.660Z,99.90
2022-10-26T10:05:54.970Z,99.90
2022-10-26T10:08:25.222Z,99.90
2022-10-26T10:10:58.960Z,99.90
2022-10-26T10:13:32.065Z,99.90
2022-10-26T10:16:09.012Z,99.90
2022-10-26T10:18:38.538Z,99.90
2022-10-26T10:21:07.668Z,99.90
2022-10-26T10:23:37.981Z,99.90
2022-10-26T10:26:13.092Z,99.90
2022-10-26T10:28:42.780Z,99.90
2022-10-26T10:31:22.684Z,99.90
2022-10-26T10:33:51.255Z,99.90
2022-10-26T10:36:21.286Z,99.90
2022-10-26T10:38:50.483Z,99.90
2022-10-26T10:41:35.411Z,99.90
2022-10-26T10:44:08.681Z,99.90
2022-10-26T10:46:37.881Z,99.90
2022-10-26T10:49:17.912Z,99.90
2022-10-26T10:51:46.769Z,99.90
2022-10-26T10:54:26.849Z,99.90
2022-10-26T10:56:57.893Z,99.90
2022-10-26T10:59:36.078Z,99.90
2022-10-26T11:02:33.546Z,99.90
2022-10-26T11:05:36.115Z,99.90
2022-10-26T11:11:21.620Z,99.90
2022-10-26T11:13:55.728Z,99.90
2022-10-26T11:16:32.541Z,99.90
2022-10-26T11:19:09.781Z,99.90
2022-10-26T11:21:40.383Z,99.90
2022-10-26T11:24:18.507Z,99.90
2022-10-26T11:26:56.853Z,99.90
2022-10-26T11:29:39.359Z,99.90
2022-10-26T11:32:23.792Z,99.90
2022-10-26T11:34:58.031Z,99.90
2022-10-26T11:40:15.519Z,99.90
2022-10-26T11:42:47.255Z,99.90
2022-10-26T11:45:30.653Z,99.90
2022-10-26T11:48:18.004Z,99.90
2022-10-26T11:50:50.028Z,99.90
2022-10-26T11:53:20.436Z,99.90
2022-10-26T11:55:55.728Z,99.90
2022-10-26T11:58:26.335Z,99.90
2022-10-26T12:00:57.839Z,99.90
2022-10-26T12:03:31.806Z,99.90
2022-10-26T12:05:59.580Z,99.90
2022-10-26T12:08:48.307Z,99.90
2022-10-26T12:11:34.985Z,99.90
2022-10-26T12:14:12.109Z,99.90
2022-10-26T12:16:54.103Z,99.90
2022-10-26T12:19:35.119Z,99.90
2022-10-26T12:22:03.836Z,99.90
2022-10-26T12:24:38.061Z,99.90
2022-10-26T12:27:11.123Z,99.90
2022-10-26T12:29:49.741Z,99.90
2022-10-26T12:32:33.141Z,99.90
2022-10-26T12:35:03.022Z,99.90
2022-10-26T12:37:37.743Z,99.90
2022-10-26T12:40:25.417Z,99.90
2022-10-26T12:42:53.308Z,99.90
2022-10-26T12:48:38.910Z,99.90
2022-10-26T12:50:54.626Z,99.90
2022-10-26T12:53:22.851Z,99.90
2022-10-26T12:56:03.098Z,99.90
2022-10-26T12:58:49.151Z,99.90
2022-10-26T13:01:35.698Z,99.90
2022-10-26T13:04:13.256Z,99.90
2022-10-26T13:07:02.789Z,99.90
2022-10-26T13:09:34.209Z,99.90
2022-10-26T13:12:03.876Z,99.90
2022-10-26T13:14:42.623Z,99.90
2022-10-26T13:17:13.887Z,99.90
2022-10-26T13:19:47.427Z,99.90
2022-10-26T13:22:18.541Z,99.90
2022-10-26T13:24:55.451Z,99.90
2022-10-26T13:27:25.862Z,99.90
2022-10-26T13:30:12.244Z,99.90
2022-10-26T13:32:42.713Z,99.90
2022-10-26T13:35:14.821Z,99.90
2022-10-26T13:37:47.242Z,99.90
2022-10-26T13:40:21.411Z,99.90
2022-10-26T13:42:52.896Z,99.90
2022-10-26T13:45:32.337Z,99.90
2022-10-26T13:48:03.993Z,99.90
2022-10-26T13:50:36.082Z,99.90
2022-10-26T13:53:19.718Z,99.50
2022-10-26T13:55:54.101Z,99.10
2022-10-26T13:58:42.121Z,98.30
2022-10-26T14:01:16.358Z,97.40
2022-10-26T14:03:44.355Z,95.90
2022-10-26T14:06:21.807Z,94.60
2022-10-26T14:08:50.900Z,93.50
2022-10-26T14:11:24.988Z,92.10
2022-10-26T14:13:52.852Z,91.60
2022-10-26T14:16:22.175Z,91.00
2022-10-26T14:18:49.742Z,90.20
2022-10-26T14:21:20.235Z,86.40
2022-10-26T14:23:58.099Z,83.80
2022-10-26T14:26:29.173Z,77.80
2022-10-26T14:29:01.553Z,76.70
2022-10-26T14:31:31.435Z,75.50
2022-10-26T14:34:00.621Z,73.40
2022-10-26T14:36:41.443Z,72.60
2022-10-26T14:39:18.717Z,72.60
2022-10-26T14:41:47.057Z,71.90
2022-10-26T14:44:17.622Z,70.60
2022-10-26T14:46:46.785Z,69.60
2022-10-26T14:49:23.870Z,70.00
2022-10-26T14:52:06.091Z,69.40
2022-10-26T14:54:34.882Z,69.10
2022-10-26T14:57:04.258Z,68.60
2022-10-26T14:59:32.550Z,69.70
2022-10-26T15:02:13.465Z,71.00
2022-10-26T15:04:44.513Z,70.30
2022-10-26T15:07:19.295Z,71.00
2022-10-26T15:09:51.473Z,71.70
2022-10-26T15:12:34.778Z,72.90
2022-10-26T15:15:18.781Z,73.10
2022-10-26T15:18:00.299Z,73.40
2022-10-26T15:20:29.857Z,74.20
2022-10-26T15:23:01.115Z,74.40
2022-10-26T15:25:31.905Z,75.00
2022-10-26T15:28:32.988Z,76.70
2022-10-26T15:31:07.564Z,77.70
2022-10-26T15:33:45.317Z,79.90
2022-10-26T15:36:16.517Z,81.60
2022-10-26T15:38:45.007Z,83.70
2022-10-26T15:41:33.824Z,85.30
2022-10-26T15:44:06.489Z,86.20
2022-10-26T15:46:37.328Z,87.80
2022-10-26T15:49:07.498Z,88.60
2022-10-26T15:51:35.590Z,90.10
2022-10-26T15:54:04.875Z,91.00
2022-10-26T15:56:32.745Z,92.10
2022-10-26T15:59:00.125Z,93.00
2022-10-26T16:01:29.514Z,94.20
2022-10-26T16:03:57.076Z,95.50
2022-10-26T16:06:31.269Z,96.90
2022-10-26T16:09:01.790Z,98.40
2022-10-26T16:11:29.799Z,99.80
2022-10-26T16:14:03.588Z,99.90
2022-10-26T16:16:30.072Z,99.90
2022-10-26T16:19:18.565Z,99.90
2022-10-26T16:21:27.736Z,99.90
2022-10-26T16:23:57.421Z,99.90
2022-10-26T16:26:25.466Z,99.90
2022-10-26T16:28:52.853Z,99.90
2022-10-26T16:31:21.158Z,99.90
2022-10-26T16:33:48.729Z,99.90
2022-10-26T16:36:17.226Z,99.90
2022-10-26T16:38:45.082Z,99.90
2022-10-26T16:41:14.937Z,99.90
2022-10-26T16:43:45.331Z,99.90
2022-10-26T16:46:17.012Z,99.90
2022-10-26T16:48:46.522Z,99.90
2022-10-26T16:51:16.814Z,99.90
2022-10-26T16:53:50.860Z,99.90
2022-10-26T16:56:22.572Z,99.90
2022-10-26T16:58:50.657Z,99.90
2022-10-26T17:01:21.687Z,99.90
2022-10-26T17:03:51.060Z,99.90
2022-10-26T17:06:18.792Z,99.90
2022-10-26T17:08:46.974Z,99.90
2022-10-26T17:11:17.410Z,99.90
2022-10-26T17:13:45.818Z,99.90
2022-10-26T17:16:19.269Z,99.90
2022-10-26T17:18:47.970Z,99.90
2022-10-26T17:21:17.372Z,99.90
2022-10-26T17:23:45.470Z,99.90
2022-10-26T17:26:14.804Z,99.90
2022-10-26T17:28:42.268Z,99.90
2022-10-26T17:31:15.916Z,99.90
2022-10-26T17:33:44.802Z,99.90
2022-10-26T17:36:14.261Z,99.90
2022-10-26T17:38:42.728Z,99.90
2022-10-26T17:41:14.507Z,99.90
2022-10-26T17:43:44.047Z,99.90
2022-10-26T17:46:14.397Z,99.90
2022-10-26T17:48:55.828Z,99.90
2022-10-26T17:51:24.600Z,99.90
2022-10-26T17:53:53.212Z,99.90
2022-10-26T17:56:23.184Z,99.90
2022-10-26T17:58:53.552Z,99.90
2022-10-26T18:01:21.403Z,99.90
2022-10-26T18:03:49.302Z,99.90
2022-10-26T18:06:17.748Z,99.90
2022-10-26T18:08:45.852Z,99.90
2022-10-26T18:11:16.068Z,99.90
2022-10-26T18:13:44.125Z,99.90
2022-10-26T18:16:14.343Z,99.90
2022-10-26T18:18:44.670Z,99.90
2022-10-26T18:21:13.888Z,99.90
2022-10-26T18:23:41.825Z,99.90
2022-10-26T18:26:13.156Z,99.90
2022-10-26T18:28:41.754Z,99.90
2022-10-26T18:31:12.063Z,99.90
2022-10-26T18:33:39.949Z,99.90
2022-10-26T18:36:10.300Z,99.90
2022-10-26T18:38:40.521Z,99.90
2022-10-26T18:41:10.179Z,99.90
2022-10-26T18:43:45.235Z,99.90
2022-10-26T18:46:18.994Z,99.90
2022-10-26T18:48:45.409Z,99.90
2022-10-26T18:51:15.767Z,99.90
2022-10-26T18:53:46.249Z,99.90
2022-10-26T18:56:17.433Z,99.90
2022-10-26T18:58:49.167Z,99.90
2022-10-26T19:01:23.610Z,99.90
2022-10-26T19:03:59.964Z,99.90
2022-10-26T19:06:31.180Z,99.90
2022-10-26T19:08:59.334Z,99.90
2022-10-26T19:11:29.122Z,99.90
2022-10-26T19:13:57.524Z,99.90
2022-10-26T19:16:44.758Z,99.90
2022-10-26T19:18:58.050Z,99.90
2022-10-26T19:21:26.787Z,99.90
2022-10-26T19:23:56.571Z,99.90
2022-10-26T19:26:30.656Z,99.90
2022-10-26T19:28:59.708Z,99.90
2022-10-26T19:31:28.547Z,99.90
2022-10-26T19:33:57.549Z,99.90
2022-10-26T19:36:25.817Z,99.90
2022-10-26T19:38:54.176Z,99.90
2022-10-26T19:41:23.543Z,99.90
2022-10-26T19:43:51.568Z,99.90
2022-10-26T19:46:21.457Z,99.90
2022-10-26T19:48:52.029Z,99.90
2022-10-26T19:51:20.125Z,99.90
2022-10-26T19:53:47.555Z,99.90
2022-10-26T19:56:16.947Z,99.90
2022-10-26T19:58:45.456Z,99.90
2022-10-26T20:01:23.403Z,99.90
2022-10-26T20:03:51.551Z,99.90
2022-10-26T20:06:18.980Z,99.90
2022-10-26T20:08:48.735Z,99.90
2022-10-26T20:11:17.928Z,99.90
2022-10-26T20:13:46.907Z,99.90
2022-10-26T20:16:17.942Z,99.90
2022-10-26T20:18:48.085Z,99.90
2022-10-26T20:21:16.469Z,99.90
2022-10-26T20:23:44.900Z,99.90
2022-10-26T20:26:18.907Z,99.90
2022-10-26T20:28:46.069Z,99.90
2022-10-26T20:31:13.652Z,99.90
2022-10-26T20:33:41.625Z,99.90
2022-10-26T20:36:09.579Z,99.90
2022-10-26T20:38:38.908Z,99.90
2022-10-26T20:41:10.301Z,99.90
2022-10-26T20:43:39.627Z,99.90
2022-10-26T20:46:10.706Z,99.90
2022-10-26T20:48:39.216Z,99.90
2022-10-26T20:51:10.286Z,99.90
2022-10-26T20:53:53.813Z,99.90
2022-10-26T20:56:25.593Z,99.90
2022-10-26T20:58:55.971Z,99.90
2022-10-26T21:01:30.003Z,99.90
2022-10-26T21:04:00.226Z,99.90
2022-10-26T21:06:28.908Z,99.90
2022-10-26T21:08:57.829Z,99.90
2022-10-26T21:11:26.284Z,99.90
2022-10-26T21:13:54.690Z,99.90
2022-10-26T21:18:50.244Z,99.90
2022-10-26T21:21:17.751Z,99.90
2022-10-26T21:23:46.188Z,99.90
2022-10-26T21:26:13.891Z,99.90
2022-10-26T21:28:46.271Z,99.90
2022-10-26T21:31:15.886Z,99.90
2022-10-26T21:33:43.769Z,99.90
2022-10-26T21:36:12.710Z,99.90
2022-10-26T21:38:43.263Z,99.90
2022-10-26T21:41:13.730Z,99.90
2022-10-26T21:43:43.453Z,99.90
2022-10-26T21:46:11.345Z,99.90
2022-10-26T21:48:41.162Z,99.90
2022-10-26T21:51:15.315Z,99.90
2022-10-26T21:53:43.065Z,99.90
2022-10-26T21:56:16.905Z,99.90
2022-10-26T21:58:45.246Z,99.90
2022-10-26T22:01:15.594Z,99.90
2022-10-26T22:03:44.235Z,99.90
2022-10-26T22:06:13.901Z,99.90
2022-10-26T22:08:41.900Z,99.90
2022-10-26T22:11:23.162Z,99.90
2022-10-26T22:13:51.929Z,99.90
2022-10-26T22:16:22.687Z,99.90
2022-10-26T22:18:51.960Z,99.90
2022-10-26T22:21:21.331Z,99.90
2022-10-26T22:23:50.084Z,99.90
2022-10-26T22:26:23.092Z,99.90
2022-10-26T22:28:53.650Z,99.90
2022-10-26T22:31:27.543Z,99.90
2022-10-26T22:34:00.866Z,99.90
2022-10-26T22:36:29.233Z,99.90
2022-10-26T22:38:56.612Z,99.90
2022-10-26T22:41:25.085Z,99.90
2022-10-26T22:43:52.539Z,99.90
2022-10-26T22:46:25.777Z,99.90
2022-10-26T22:49:03.915Z,99.90
2022-10-26T22:51:34.910Z,99.90
2022-10-26T22:54:04.049Z,99.90
2022-10-26T22:56:33.306Z,99.90
2022-10-26T22:59:00.989Z,99.90
2022-10-26T23:01:31.805Z,99.90
2022-10-26T23:04:00.272Z,99.90
2022-10-26T23:06:29.345Z,99.90
2022-10-26T23:08:57.443Z,99.90
2022-10-26T23:11:27.040Z,99.90
2022-10-26T23:13:56.857Z,99.90
2022-10-26T23:16:25.441Z,99.90
2022-10-26T23:18:53.620Z,99.90
2022-10-26T23:21:22.750Z,99.90
2022-10-26T23:23:50.579Z,99.90
2022-10-26T23:26:21.063Z,99.90
2022-10-26T23:28:49.485Z,99.90
2022-10-26T23:31:22.682Z,99.90
2022-10-26T23:33:51.408Z,99.90
2022-10-26T23:36:19.888Z,99.90
2022-10-26T23:38:48.432Z,99.90
2022-10-26T23:41:16.022Z,99.90
2022-10-26T23:43:43.668Z,99.90
2022-10-26T23:46:11.630Z,99.90
2022-10-26T23:48:39.234Z,99.90
2022-10-26T23:51:06.796Z,99.90
2022-10-26T23:53:34.560Z,99.90
2022-10-26T23:56:02.330Z,99.90
2022-10-26T23:58:30.095Z,99.90
